sensor_id;sensor_type;location;lat;lon;timestamp;P1;durP1;ratioP1;P2;durP2;ratioP2
23252;SDS011;11795;47.054;15.408;2023-04-25T00:00:00;5.3;;;3.9;;
23252;SDS011;11795;47.054;15.408;2023-04-25T00:02:00;5.3;;;3.9;;
23252;SDS011;11795;47.054;15.408;2023-04-25T00:04:00;5.3;;;3.9;;
23252;SDS011;11795;47.054;15.408;2023-04-25T00:06:02;4.4;;;3.7;;
23252;SDS011;11795;47.054;15.408;2023-04-25T00:08:00;4.4;;;3.7;;
23252;SDS011;11795;47.054;15.408;2023-04-25T00:10:00;4.4;;;4.0;;
23252;SDS011;11795;47.054;15.408;2023-04-25T00:12:01;4.4;;;4.0;;
23252;SDS011;11795;47.054;15.408;2023-04-25T05:08:00;6.2;;;4.1;;
23252;SDS011;11795;47.054;15.408;2023-04-25T05:10:00;6.2;;;4.1;;
23252;SDS011;11795;47.054;15.408;2023-04-25T05:12:01;4.4;;;4.0;;
23252;SDS011;11795;47.054;15.408;2023-04-25T05:14:00;4.4;;;4.0;;
23252;SDS011;11795;47.054;15.408;2023-04-25T05:16:01;6.8;;;4.7;;
23252;SDS011;11795;47.054;15.408;2023-04-25T05:18:01;6.8;;;4.7;;
23252;SDS011;11795;47.054;15.408;2023-04-25T05:20:00;6.8;;;4.7;;
23252;SDS011;11795;47.054;15.408;2023-04-25T05:22:01;6.6;;;5.2;;
23252;SDS011;11795;47.054;15.408;2023-04-25T05:24:01;6.6;;;5.2;;
23252;SDS011;11795;47.054;15.408;2023-04-25T05:26:00;5.2;;;4.5;;
23252;SDS011;11795;47.054;15.408;2023-04-25T05:28:00;5.2;;;4.5;;
23252;SDS011;11795;47.054;15.408;2023-04-25T05:30:00;5.2;;;4.5;;
23252;SDS011;11795;47.054;15.408;2023-04-25T05:32:00;7.1;;;5.2;;
23252;SDS011;11795;47.054;15.408;2023-04-25T05:34:00;7.1;;;5.2;;
23252;SDS011;11795;47.054;15.408;2023-04-25T05:36:00;4.8;;;4.3;;
23252;SDS011;11795;47.054;15.408;2023-04-25T05:38:00;4.8;;;4.3;;
23252;SDS011;11795;47.054;15.408;2023-04-25T05:40:00;4.8;;;4.3;;
23252;SDS011;11795;47.054;15.408;2023-04-25T05:42:01;5.0;;;3.9;;
23252;SDS011;11795;47.054;15.408;2023-04-25T05:44:00;5.0;;;3.9;;
23252;SDS011;11795;47.054;15.408;2023-04-25T05:46:00;5.8;;;4.3;;
23252;SDS011;11795;47.054;15.408;2023-04-25T05:48:00;5.8;;;4.3;;
23252;SDS011;11795;47.054;15.408;2023-04-25T05:50:00;5.8;;;4.3;;
23252;SDS011;11795;47.054;15.408;2023-04-25T05:52:00;5.7;;;4.2;;
23252;SDS011;11795;47.054;15.408;2023-04-25T05:54:00;5.7;;;4.2;;
23252;SDS011;11795;47.054;15.408;2023-04-25T05:56:00;7.2;;;4.1;;
23252;SDS011;11795;47.054;15.408;2023-04-25T05:58:00;7.2;;;4.1;;
23252;SDS011;11795;47.054;15.408;2023-04-25T06:00:00;7.2;;;4.1;;
23252;SDS011;11795;47.054;15.408;2023-04-25T06:02:00;5.4;;;3.6;;
23252;SDS011;11795;47.054;15.408;2023-04-25T06:04:01;5.4;;;3.6;;
23252;SDS011;11795;47.054;15.408;2023-04-25T06:06:00;5.1;;;4.0;;
23252;SDS011;11795;47.054;15.408;2023-04-25T06:08:01;5.1;;;4.0;;
23252;SDS011;11795;47.054;15.408;2023-04-25T06:10:00;5.1;;;4.0;;
23252;SDS011;11795;47.054;15.408;2023-04-25T06:12:01;6.5;;;4.1;;
23252;SDS011;11795;47.054;15.408;2023-04-25T06:14:00;6.5;;;4.1;;
23252;SDS011;11795;47.054;15.408;2023-04-25T06:16:00;4.6;;;3.8;;
23252;SDS011;11795;47.054;15.408;2023-04-25T06:18:00;4.6;;;3.8;;
23252;SDS011;11795;47.054;15.408;2023-04-25T06:20:00;4.6;;;3.8;;
23252;SDS011;11795;47.054;15.408;2023-04-25T06:22:00;4.0;;;3.6;;
23252;SDS011;11795;47.054;15.408;2023-04-25T06:24:00;4.0;;;3.6;;
23252;SDS011;11795;47.054;15.408;2023-04-25T06:26:00;4.3;;;3.3;;
23252;SDS011;11795;47.054;15.408;2023-04-25T06:28:00;4.3;;;3.3;;
23252;SDS011;11795;47.054;15.408;2023-04-25T06:30:00;4.3;;;3.3;;
23252;SDS011;11795;47.054;15.408;2023-04-25T06:32:00;8.2;;;5.4;;
23252;SDS011;11795;47.054;15.408;2023-04-25T06:34:00;8.2;;;5.4;;
23252;SDS011;11795;47.054;15.408;2023-04-25T06:36:00;7.9;;;5.7;;
23252;SDS011;11795;47.054;15.408;2023-04-25T06:38:00;7.9;;;5.7;;
23252;SDS011;11795;47.054;15.408;2023-04-25T06:40:01;7.9;;;5.7;;
23252;SDS011;11795;47.054;15.408;2023-04-25T06:42:00;8.1;;;5.6;;
23252;SDS011;11795;47.054;15.408;2023-04-25T06:44:00;8.1;;;5.6;;
23252;SDS011;11795;47.054;15.408;2023-04-25T06:46:00;7.1;;;6.4;;
23252;SDS011;11795;47.054;15.408;2023-04-25T06:48:00;7.1;;;6.4;;
23252;SDS011;11795;47.054;15.408;2023-04-25T06:50:00;7.1;;;6.4;;
23252;SDS011;11795;47.054;15.408;2023-04-25T06:52:00;11.8;;;9.2;;
23252;SDS011;11795;47.054;15.408;2023-04-25T06:54:00;11.8;;;9.2;;
23252;SDS011;11795;47.054;15.408;2023-04-25T06:56:00;13.0;;;10.8;;
23252;SDS011;11795;47.054;15.408;2023-04-25T06:58:00;13.0;;;10.8;;
23252;SDS011;11795;47.054;15.408;2023-04-25T07:00:00;13.0;;;10.8;;
23252;SDS011;11795;47.054;15.408;2023-04-25T07:02:00;13.9;;;10.4;;
23252;SDS011;11795;47.054;15.408;2023-04-25T07:04:00;13.9;;;10.4;;
23252;SDS011;11795;47.054;15.408;2023-04-25T07:06:00;10.6;;;9.1;;
23252;SDS011;11795;47.054;15.408;2023-04-25T07:08:00;10.6;;;9.1;;
23252;SDS011;11795;47.054;15.408;2023-04-25T07:10:00;10.6;;;9.1;;
23252;SDS011;11795;47.054;15.408;2023-04-25T07:12:01;11.0;;;8.4;;
23252;SDS011;11795;47.054;15.408;2023-04-25T07:14:00;11.0;;;8.4;;
23252;SDS011;11795;47.054;15.408;2023-04-25T07:16:00;9.5;;;7.8;;
23252;SDS011;11795;47.054;15.408;2023-04-25T07:18:00;9.5;;;7.8;;
23252;SDS011;11795;47.054;15.408;2023-04-25T07:20:00;9.5;;;7.8;;
23252;SDS011;11795;47.054;15.408;2023-04-25T07:22:00;9.0;;;7.7;;
23252;SDS011;11795;47.054;15.408;2023-04-25T07:24:00;9.0;;;7.7;;
23252;SDS011;11795;47.054;15.408;2023-04-25T07:26:00;9.6;;;7.8;;
23252;SDS011;11795;47.054;15.408;2023-04-25T07:28:00;9.6;;;7.8;;
23252;SDS011;11795;47.054;15.408;2023-04-25T07:30:00;9.6;;;7.8;;
23252;SDS011;11795;47.054;15.408;2023-04-25T07:32:00;7.5;;;6.4;;
23252;SDS011;11795;47.054;15.408;2023-04-25T07:34:00;7.5;;;6.4;;
23252;SDS011;11795;47.054;15.408;2023-04-25T07:36:00;7.6;;;6.1;;
23252;SDS011;11795;47.054;15.408;2023-04-25T07:38:01;7.6;;;6.1;;
23252;SDS011;11795;47.054;15.408;2023-04-25T07:40:01;7.6;;;6.1;;
23252;SDS011;11795;47.054;15.408;2023-04-25T07:42:02;6.7;;;5.3;;
23252;SDS011;11795;47.054;15.408;2023-04-25T07:44:00;6.7;;;5.3;;
23252;SDS011;11795;47.054;15.408;2023-04-25T07:46:01;5.7;;;5.1;;
23252;SDS011;11795;47.054;15.408;2023-04-25T07:48:00;5.7;;;5.1;;
23252;SDS011;11795;47.054;15.408;2023-04-25T07:50:00;5.7;;;5.1;;
23252;SDS011;11795;47.054;15.408;2023-04-25T07:52:01;4.7;;;3.9;;
23252;SDS011;11795;47.054;15.408;2023-04-25T07:54:00;4.7;;;3.9;;
23252;SDS011;11795;47.054;15.408;2023-04-25T07:56:00;4.2;;;3.3;;
23252;SDS011;11795;47.054;15.408;2023-04-25T07:58:00;4.2;;;3.3;;
23252;SDS011;11795;47.054;15.408;2023-04-25T08:00:00;4.2;;;3.3;;
23252;SDS011;11795;47.054;15.408;2023-04-25T08:02:00;4.6;;;3.1;;
23252;SDS011;11795;47.054;15.408;2023-04-25T08:04:00;4.6;;;3.1;;
23252;SDS011;11795;47.054;15.408;2023-04-25T08:06:00;3.5;;;2.3;;
23252;SDS011;11795;47.054;15.408;2023-04-25T08:08:02;3.5;;;2.3;;
23252;SDS011;11795;47.054;15.408;2023-04-25T08:10:00;3.5;;;2.3;;
23252;SDS011;11795;47.054;15.408;2023-04-25T08:12:00;2.7;;;1.7;;
23252;SDS011;11795;47.054;15.408;2023-04-25T08:14:00;2.7;;;1.7;;
23252;SDS011;11795;47.054;15.408;2023-04-25T08:16:00;3.8;;;1.7;;
23252;SDS011;11795;47.054;15.408;2023-04-25T08:18:00;3.8;;;1.7;;
23252;SDS011;11795;47.054;15.408;2023-04-25T08:20:00;3.8;;;1.7;;
23252;SDS011;11795;47.054;15.408;2023-04-25T08:22:00;1.8;;;1.1;;
23252;SDS011;11795;47.054;15.408;2023-04-25T08:24:00;1.8;;;1.1;;
23252;SDS011;11795;47.054;15.408;2023-04-25T08:26:00;2.5;;;1.1;;
23252;SDS011;11795;47.054;15.408;2023-04-25T08:28:02;2.5;;;1.1;;
23252;SDS011;11795;47.054;15.408;2023-04-25T08:30:00;2.5;;;1.1;;
23252;SDS011;11795;47.054;15.408;2023-04-25T08:32:00;1.1;;;0.8;;
23252;SDS011;11795;47.054;15.408;2023-04-25T08:34:00;1.1;;;0.8;;
23252;SDS011;11795;47.054;15.408;2023-04-25T08:36:00;1.1;;;0.8;;
23252;SDS011;11795;47.054;15.408;2023-04-25T08:38:01;1.1;;;0.8;;
23252;SDS011;11795;47.054;15.408;2023-04-25T08:40:00;1.1;;;0.8;;
23252;SDS011;11795;47.054;15.408;2023-04-25T08:42:02;2.9;;;1.0;;
23252;SDS011;11795;47.054;15.408;2023-04-25T08:44:00;2.9;;;1.0;;
23252;SDS011;11795;47.054;15.408;2023-04-25T08:46:00;1.9;;;0.7;;
23252;SDS011;11795;47.054;15.408;2023-04-25T08:48:00;1.9;;;0.7;;
23252;SDS011;11795;47.054;15.408;2023-04-25T08:50:02;1.9;;;0.7;;
23252;SDS011;11795;47.054;15.408;2023-04-25T08:52:01;1.3;;;0.7;;
23252;SDS011;11795;47.054;15.408;2023-04-25T08:54:02;1.3;;;0.7;;
23252;SDS011;11795;47.054;15.408;2023-04-25T08:56:01;1.5;;;0.6;;
23252;SDS011;11795;47.054;15.408;2023-04-25T08:58:00;1.5;;;0.6;;
23252;SDS011;11795;47.054;15.408;2023-04-25T09:00:00;1.5;;;0.6;;
23252;SDS011;11795;47.054;15.408;2023-04-25T09:02:00;1.4;;;0.6;;
23252;SDS011;11795;47.054;15.408;2023-04-25T09:04:00;1.4;;;0.6;;
23252;SDS011;11795;47.054;15.408;2023-04-25T09:06:00;1.4;;;0.6;;
23252;SDS011;11795;47.054;15.408;2023-04-25T09:08:00;0.9;;;0.6;;
23252;SDS011;11795;47.054;15.408;2023-04-25T09:10:03;0.9;;;0.6;;
23252;SDS011;11795;47.054;15.408;2023-04-25T09:12:01;0.8;;;0.6;;
23252;SDS011;11795;47.054;15.408;2023-04-25T09:16:00;0.8;;;0.6;;
23252;SDS011;11795;47.054;15.408;2023-04-25T09:18:00;1.3;;;0.7;;
23252;SDS011;11795;47.054;15.408;2023-04-25T09:20:05;1.3;;;0.7;;
23252;SDS011;11795;47.054;15.408;2023-04-25T09:22:01;1.2;;;0.8;;
23252;SDS011;11795;47.054;15.408;2023-04-25T09:24:00;1.2;;;0.8;;
23252;SDS011;11795;47.054;15.408;2023-04-25T09:26:00;1.2;;;0.8;;
23252;SDS011;11795;47.054;15.408;2023-04-25T09:28:00;0.9;;;0.7;;
23252;SDS011;11795;47.054;15.408;2023-04-25T09:30:00;0.9;;;0.7;;
23252;SDS011;11795;47.054;15.408;2023-04-25T09:34:00;0.8;;;0.6;;
23252;SDS011;11795;47.054;15.408;2023-04-25T09:36:02;0.8;;;0.6;;
23252;SDS011;11795;47.054;15.408;2023-04-25T09:38:00;1.0;;;0.5;;
23252;SDS011;11795;47.054;15.408;2023-04-25T09:40:04;1.0;;;0.5;;
23252;SDS011;11795;47.054;15.408;2023-04-25T09:42:00;1.6;;;0.6;;
23252;SDS011;11795;47.054;15.408;2023-04-25T09:44:00;1.6;;;0.6;;
23252;SDS011;11795;47.054;15.408;2023-04-25T09:46:01;1.6;;;0.6;;
23252;SDS011;11795;47.054;15.408;2023-04-25T09:48:03;1.0;;;0.8;;
23252;SDS011;11795;47.054;15.408;2023-04-25T09:50:00;1.0;;;0.8;;
23252;SDS011;11795;47.054;15.408;2023-04-25T09:52:00;1.1;;;0.7;;
23252;SDS011;11795;47.054;15.408;2023-04-25T09:54:00;1.1;;;0.7;;
23252;SDS011;11795;47.054;15.408;2023-04-25T09:56:00;1.1;;;0.7;;
23252;SDS011;11795;47.054;15.408;2023-04-25T09:58:02;0.8;;;0.7;;
23252;SDS011;11795;47.054;15.408;2023-04-25T10:00:00;0.8;;;0.7;;
23252;SDS011;11795;47.054;15.408;2023-04-25T10:02:00;1.0;;;0.6;;
23252;SDS011;11795;47.054;15.408;2023-04-25T10:04:00;1.0;;;0.6;;
23252;SDS011;11795;47.054;15.408;2023-04-25T10:06:01;1.0;;;0.6;;
23252;SDS011;11795;47.054;15.408;2023-04-25T10:08:02;1.2;;;0.7;;
23252;SDS011;11795;47.054;15.408;2023-04-25T10:10:02;1.2;;;0.7;;
23252;SDS011;11795;47.054;15.408;2023-04-25T10:12:00;1.7;;;0.6;;
23252;SDS011;11795;47.054;15.408;2023-04-25T10:14:00;1.7;;;0.6;;
23252;SDS011;11795;47.054;15.408;2023-04-25T10:16:01;1.7;;;0.6;;
23252;SDS011;11795;47.054;15.408;2023-04-25T10:18:01;1.1;;;0.5;;
23252;SDS011;11795;47.054;15.408;2023-04-25T10:20:00;1.1;;;0.5;;
23252;SDS011;11795;47.054;15.408;2023-04-25T10:22:06;2.0;;;0.6;;
23252;SDS011;11795;47.054;15.408;2023-04-25T10:24:01;2.0;;;0.6;;
23252;SDS011;11795;47.054;15.408;2023-04-25T10:26:00;2.0;;;0.6;;
23252;SDS011;11795;47.054;15.408;2023-04-25T10:28:03;1.6;;;0.6;;
23252;SDS011;11795;47.054;15.408;2023-04-25T10:30:00;1.6;;;0.6;;
23252;SDS011;11795;47.054;15.408;2023-04-25T10:32:00;1.5;;;0.8;;
23252;SDS011;11795;47.054;15.408;2023-04-25T10:34:00;1.5;;;0.8;;
23252;SDS011;11795;47.054;15.408;2023-04-25T10:36:08;1.5;;;0.8;;
23252;SDS011;11795;47.054;15.408;2023-04-25T10:38:02;1.7;;;0.6;;
23252;SDS011;11795;47.054;15.408;2023-04-25T10:40:07;1.7;;;0.6;;
23252;SDS011;11795;47.054;15.408;2023-04-25T10:42:01;1.2;;;0.6;;
23252;SDS011;11795;47.054;15.408;2023-04-25T10:44:01;1.2;;;0.6;;
23252;SDS011;11795;47.054;15.408;2023-04-25T10:46:00;1.2;;;0.6;;
23252;SDS011;11795;47.054;15.408;2023-04-25T10:48:00;1.3;;;0.6;;
23252;SDS011;11795;47.054;15.408;2023-04-25T10:50:04;1.3;;;0.6;;
23252;SDS011;11795;47.054;15.408;2023-04-25T10:54:01;1.4;;;0.6;;
23252;SDS011;11795;47.054;15.408;2023-04-25T10:56:00;1.4;;;0.6;;
23252;SDS011;11795;47.054;15.408;2023-04-25T10:58:01;0.8;;;0.5;;
23252;SDS011;11795;47.054;15.408;2023-04-25T11:00:01;0.8;;;0.5;;
23252;SDS011;11795;47.054;15.408;2023-04-25T11:02:00;2.4;;;0.6;;
23252;SDS011;11795;47.054;15.408;2023-04-25T11:04:00;2.4;;;0.6;;
23252;SDS011;11795;47.054;15.408;2023-04-25T11:06:00;2.4;;;0.6;;
23252;SDS011;11795;47.054;15.408;2023-04-25T11:08:01;1.1;;;0.9;;
23252;SDS011;11795;47.054;15.408;2023-04-25T11:10:01;1.1;;;0.9;;
23252;SDS011;11795;47.054;15.408;2023-04-25T11:12:00;1.3;;;0.6;;
23252;SDS011;11795;47.054;15.408;2023-04-25T11:14:00;1.3;;;0.6;;
23252;SDS011;11795;47.054;15.408;2023-04-25T11:16:00;1.3;;;0.6;;
23252;SDS011;11795;47.054;15.408;2023-04-25T11:18:00;1.4;;;0.6;;
23252;SDS011;11795;47.054;15.408;2023-04-25T11:20:00;1.4;;;0.6;;
23252;SDS011;11795;47.054;15.408;2023-04-25T11:22:01;1.4;;;0.6;;
23252;SDS011;11795;47.054;15.408;2023-04-25T11:24:00;1.4;;;0.6;;
23252;SDS011;11795;47.054;15.408;2023-04-25T11:26:01;1.4;;;0.6;;
23252;SDS011;11795;47.054;15.408;2023-04-25T11:28:01;1.0;;;0.6;;
23252;SDS011;11795;47.054;15.408;2023-04-25T11:30:09;1.0;;;0.6;;
23252;SDS011;11795;47.054;15.408;2023-04-25T11:32:01;1.9;;;0.6;;
23252;SDS011;11795;47.054;15.408;2023-04-25T11:34:00;1.9;;;0.6;;
23252;SDS011;11795;47.054;15.408;2023-04-25T11:36:00;1.9;;;0.6;;
23252;SDS011;11795;47.054;15.408;2023-04-25T11:38:01;0.7;;;0.5;;
23252;SDS011;11795;47.054;15.408;2023-04-25T11:40:00;0.7;;;0.5;;
23252;SDS011;11795;47.054;15.408;2023-04-25T11:42:01;3.0;;;0.7;;
23252;SDS011;11795;47.054;15.408;2023-04-25T11:44:00;3.0;;;0.7;;
23252;SDS011;11795;47.054;15.408;2023-04-25T11:46:00;3.0;;;0.7;;
23252;SDS011;11795;47.054;15.408;2023-04-25T11:48:01;1.2;;;0.6;;
23252;SDS011;11795;47.054;15.408;2023-04-25T11:50:01;1.2;;;0.6;;
23252;SDS011;11795;47.054;15.408;2023-04-25T11:52:00;1.8;;;0.6;;
23252;SDS011;11795;47.054;15.408;2023-04-25T11:54:00;1.8;;;0.6;;
23252;SDS011;11795;47.054;15.408;2023-04-25T11:56:01;1.8;;;0.6;;
23252;SDS011;11795;47.054;15.408;2023-04-25T11:58:00;1.8;;;0.5;;
23252;SDS011;11795;47.054;15.408;2023-04-25T12:00:09;1.8;;;0.5;;
23252;SDS011;11795;47.054;15.408;2023-04-25T12:02:01;1.5;;;0.6;;
23252;SDS011;11795;47.054;15.408;2023-04-25T12:04:10;1.5;;;0.6;;
23252;SDS011;11795;47.054;15.408;2023-04-25T12:06:02;1.5;;;0.6;;
23252;SDS011;11795;47.054;15.408;2023-04-25T12:10:03;1.0;;;0.4;;
23252;SDS011;11795;47.054;15.408;2023-04-25T12:12:02;0.8;;;0.5;;
23252;SDS011;11795;47.054;15.408;2023-04-25T12:14:02;0.8;;;0.5;;
23252;SDS011;11795;47.054;15.408;2023-04-25T12:16:00;0.8;;;0.5;;
23252;SDS011;11795;47.054;15.408;2023-04-25T12:18:00;1.6;;;0.5;;
23252;SDS011;11795;47.054;15.408;2023-04-25T12:20:05;1.6;;;0.5;;
23252;SDS011;11795;47.054;15.408;2023-04-25T12:22:00;1.1;;;0.6;;
23252;SDS011;11795;47.054;15.408;2023-04-25T12:26:02;1.1;;;0.6;;
23252;SDS011;11795;47.054;15.408;2023-04-25T12:28:08;2.0;;;0.6;;
23252;SDS011;11795;47.054;15.408;2023-04-25T12:30:02;2.0;;;0.6;;
23252;SDS011;11795;47.054;15.408;2023-04-25T12:32:01;0.9;;;0.7;;
23252;SDS011;11795;47.054;15.408;2023-04-25T12:34:00;0.9;;;0.7;;
23252;SDS011;11795;47.054;15.408;2023-04-25T12:36:04;0.9;;;0.7;;
23252;SDS011;11795;47.054;15.408;2023-04-25T12:38:00;1.0;;;0.5;;
23252;SDS011;11795;47.054;15.408;2023-04-25T12:40:00;1.0;;;0.5;;
23252;SDS011;11795;47.054;15.408;2023-04-25T12:42:01;1.0;;;0.5;;
23252;SDS011;11795;47.054;15.408;2023-04-25T12:44:00;1.0;;;0.5;;
23252;SDS011;11795;47.054;15.408;2023-04-25T12:46:00;1.0;;;0.5;;
23252;SDS011;11795;47.054;15.408;2023-04-25T12:48:00;1.0;;;0.6;;
23252;SDS011;11795;47.054;15.408;2023-04-25T12:50:00;1.0;;;0.6;;
23252;SDS011;11795;47.054;15.408;2023-04-25T12:52:00;1.6;;;1.3;;
23252;SDS011;11795;47.054;15.408;2023-04-25T12:54:01;1.6;;;1.3;;
23252;SDS011;11795;47.054;15.408;2023-04-25T12:56:01;1.6;;;1.3;;
23252;SDS011;11795;47.054;15.408;2023-04-25T12:58:01;1.4;;;0.7;;
23252;SDS011;11795;47.054;15.408;2023-04-25T13:00:00;1.4;;;0.7;;
23252;SDS011;11795;47.054;15.408;2023-04-25T13:02:00;1.2;;;0.5;;
23252;SDS011;11795;47.054;15.408;2023-04-25T13:04:00;1.2;;;0.5;;
23252;SDS011;11795;47.054;15.408;2023-04-25T13:06:00;1.2;;;0.5;;
23252;SDS011;11795;47.054;15.408;2023-04-25T13:08:00;0.9;;;0.6;;
23252;SDS011;11795;47.054;15.408;2023-04-25T13:10:02;0.9;;;0.6;;
23252;SDS011;11795;47.054;15.408;2023-04-25T13:12:00;2.0;;;0.7;;
23252;SDS011;11795;47.054;15.408;2023-04-25T13:14:01;2.0;;;0.7;;
23252;SDS011;11795;47.054;15.408;2023-04-25T13:16:00;2.0;;;0.7;;
23252;SDS011;11795;47.054;15.408;2023-04-25T13:18:00;2.0;;;0.5;;
23252;SDS011;11795;47.054;15.408;2023-04-25T13:20:00;2.0;;;0.5;;
23252;SDS011;11795;47.054;15.408;2023-04-25T13:22:01;1.6;;;0.6;;
23252;SDS011;11795;47.054;15.408;2023-04-25T13:24:00;1.6;;;0.6;;
23252;SDS011;11795;47.054;15.408;2023-04-25T13:26:01;1.6;;;0.6;;
23252;SDS011;11795;47.054;15.408;2023-04-25T13:28:01;1.4;;;0.9;;
23252;SDS011;11795;47.054;15.408;2023-04-25T13:30:01;1.4;;;0.9;;
23252;SDS011;11795;47.054;15.408;2023-04-25T13:32:00;1.1;;;0.8;;
23252;SDS011;11795;47.054;15.408;2023-04-25T13:34:00;1.1;;;0.8;;
23252;SDS011;11795;47.054;15.408;2023-04-25T13:36:00;1.1;;;0.8;;
23252;SDS011;11795;47.054;15.408;2023-04-25T13:38:00;1.4;;;0.7;;
23252;SDS011;11795;47.054;15.408;2023-04-25T13:40:00;1.4;;;0.7;;
23252;SDS011;11795;47.054;15.408;2023-04-25T13:42:01;1.1;;;0.5;;
23252;SDS011;11795;47.054;15.408;2023-04-25T13:44:01;1.1;;;0.5;;
23252;SDS011;11795;47.054;15.408;2023-04-25T13:46:00;1.1;;;0.5;;
23252;SDS011;11795;47.054;15.408;2023-04-25T13:48:00;2.0;;;0.6;;
23252;SDS011;11795;47.054;15.408;2023-04-25T13:50:03;2.0;;;0.6;;
23252;SDS011;11795;47.054;15.408;2023-04-25T13:52:00;1.2;;;0.6;;
23252;SDS011;11795;47.054;15.408;2023-04-25T13:54:00;1.2;;;0.6;;
23252;SDS011;11795;47.054;15.408;2023-04-25T13:56:00;1.2;;;0.6;;
23252;SDS011;11795;47.054;15.408;2023-04-25T13:58:07;1.3;;;0.6;;
23252;SDS011;11795;47.054;15.408;2023-04-25T14:00:05;1.3;;;0.6;;
23252;SDS011;11795;47.054;15.408;2023-04-25T14:02:00;1.3;;;0.6;;
23252;SDS011;11795;47.054;15.408;2023-04-25T14:04:00;1.0;;;0.5;;
23252;SDS011;11795;47.054;15.408;2023-04-25T14:06:00;1.0;;;0.5;;
23252;SDS011;11795;47.054;15.408;2023-04-25T14:08:00;1.3;;;0.7;;
23252;SDS011;11795;47.054;15.408;2023-04-25T14:10:00;1.3;;;0.7;;
23252;SDS011;11795;47.054;15.408;2023-04-25T14:12:02;1.3;;;0.7;;
23252;SDS011;11795;47.054;15.408;2023-04-25T14:14:00;1.4;;;0.5;;
23252;SDS011;11795;47.054;15.408;2023-04-25T14:16:00;1.4;;;0.5;;
23252;SDS011;11795;47.054;15.408;2023-04-25T14:18:00;1.3;;;0.6;;
23252;SDS011;11795;47.054;15.408;2023-04-25T14:20:00;1.3;;;0.6;;
23252;SDS011;11795;47.054;15.408;2023-04-25T14:22:00;1.3;;;0.6;;
23252;SDS011;11795;47.054;15.408;2023-04-25T14:24:00;2.1;;;0.8;;
23252;SDS011;11795;47.054;15.408;2023-04-25T14:26:00;2.1;;;0.8;;
23252;SDS011;11795;47.054;15.408;2023-04-25T14:28:01;1.3;;;0.6;;
23252;SDS011;11795;47.054;15.408;2023-04-25T14:30:00;1.3;;;0.6;;
23252;SDS011;11795;47.054;15.408;2023-04-25T14:32:00;1.3;;;0.6;;
23252;SDS011;11795;47.054;15.408;2023-04-25T14:34:01;0.8;;;0.5;;
23252;SDS011;11795;47.054;15.408;2023-04-25T14:36:00;0.8;;;0.5;;
23252;SDS011;11795;47.054;15.408;2023-04-25T14:38:00;1.2;;;0.8;;
23252;SDS011;11795;47.054;15.408;2023-04-25T14:40:00;1.2;;;0.8;;
23252;SDS011;11795;47.054;15.408;2023-04-25T14:42:01;1.2;;;0.8;;
23252;SDS011;11795;47.054;15.408;2023-04-25T14:44:01;0.7;;;0.6;;
23252;SDS011;11795;47.054;15.408;2023-04-25T14:46:01;0.7;;;0.6;;
23252;SDS011;11795;47.054;15.408;2023-04-25T14:48:00;1.7;;;0.5;;
23252;SDS011;11795;47.054;15.408;2023-04-25T14:50:01;1.7;;;0.5;;
23252;SDS011;11795;47.054;15.408;2023-04-25T14:52:01;1.7;;;0.5;;
23252;SDS011;11795;47.054;15.408;2023-04-25T14:54:01;0.7;;;0.5;;
23252;SDS011;11795;47.054;15.408;2023-04-25T14:56:01;0.7;;;0.5;;
23252;SDS011;11795;47.054;15.408;2023-04-25T14:58:01;1.1;;;0.6;;
23252;SDS011;11795;47.054;15.408;2023-04-25T15:00:00;1.1;;;0.6;;
23252;SDS011;11795;47.054;15.408;2023-04-25T15:02:00;1.1;;;0.6;;
23252;SDS011;11795;47.054;15.408;2023-04-25T15:04:00;1.5;;;0.5;;
23252;SDS011;11795;47.054;15.408;2023-04-25T15:06:00;1.5;;;0.5;;
23252;SDS011;11795;47.054;15.408;2023-04-25T15:08:01;1.8;;;0.5;;
23252;SDS011;11795;47.054;15.408;2023-04-25T15:10:00;1.8;;;0.5;;
23252;SDS011;11795;47.054;15.408;2023-04-25T15:12:00;1.8;;;0.5;;
23252;SDS011;11795;47.054;15.408;2023-04-25T15:14:00;0.7;;;0.6;;
23252;SDS011;11795;47.054;15.408;2023-04-25T15:16:01;0.7;;;0.6;;
23252;SDS011;11795;47.054;15.408;2023-04-25T15:18:00;1.8;;;1.2;;
23252;SDS011;11795;47.054;15.408;2023-04-25T15:20:00;1.8;;;1.2;;
23252;SDS011;11795;47.054;15.408;2023-04-25T15:22:01;1.8;;;1.2;;
23252;SDS011;11795;47.054;15.408;2023-04-25T15:24:01;1.7;;;0.7;;
23252;SDS011;11795;47.054;15.408;2023-04-25T15:26:00;1.7;;;0.7;;
23252;SDS011;11795;47.054;15.408;2023-04-25T15:28:00;1.1;;;0.6;;
23252;SDS011;11795;47.054;15.408;2023-04-25T15:30:00;1.1;;;0.6;;
23252;SDS011;11795;47.054;15.408;2023-04-25T15:32:00;1.1;;;0.6;;
23252;SDS011;11795;47.054;15.408;2023-04-25T15:34:00;1.3;;;0.5;;
23252;SDS011;11795;47.054;15.408;2023-04-25T15:36:03;1.3;;;0.5;;
23252;SDS011;11795;47.054;15.408;2023-04-25T15:38:00;0.5;;;0.4;;
23252;SDS011;11795;47.054;15.408;2023-04-25T15:40:01;0.5;;;0.4;;
23252;SDS011;11795;47.054;15.408;2023-04-25T15:42:02;0.5;;;0.4;;
23252;SDS011;11795;47.054;15.408;2023-04-25T15:44:00;1.3;;;0.4;;
23252;SDS011;11795;47.054;15.408;2023-04-25T15:46:00;1.3;;;0.4;;
23252;SDS011;11795;47.054;15.408;2023-04-25T15:48:01;1.9;;;0.5;;
23252;SDS011;11795;47.054;15.408;2023-04-25T15:50:00;1.9;;;0.5;;
23252;SDS011;11795;47.054;15.408;2023-04-25T15:52:01;1.9;;;0.5;;
23252;SDS011;11795;47.054;15.408;2023-04-25T15:54:03;0.8;;;0.6;;
23252;SDS011;11795;47.054;15.408;2023-04-25T15:56:00;0.8;;;0.6;;
23252;SDS011;11795;47.054;15.408;2023-04-25T15:58:00;0.7;;;0.5;;
23252;SDS011;11795;47.054;15.408;2023-04-25T16:00:00;0.7;;;0.5;;
23252;SDS011;11795;47.054;15.408;2023-04-25T16:02:00;0.7;;;0.5;;
23252;SDS011;11795;47.054;15.408;2023-04-25T16:04:00;0.8;;;0.5;;
23252;SDS011;11795;47.054;15.408;2023-04-25T16:06:00;0.8;;;0.5;;
23252;SDS011;11795;47.054;15.408;2023-04-25T16:08:01;0.5;;;0.3;;
23252;SDS011;11795;47.054;15.408;2023-04-25T16:10:00;0.5;;;0.3;;
23252;SDS011;11795;47.054;15.408;2023-04-25T16:12:00;0.5;;;0.3;;
23252;SDS011;11795;47.054;15.408;2023-04-25T16:14:00;1.0;;;0.4;;
23252;SDS011;11795;47.054;15.408;2023-04-25T16:16:00;1.0;;;0.4;;
23252;SDS011;11795;47.054;15.408;2023-04-25T16:18:00;0.9;;;0.6;;
23252;SDS011;11795;47.054;15.408;2023-04-25T16:20:01;0.9;;;0.6;;
23252;SDS011;11795;47.054;15.408;2023-04-25T16:22:01;0.9;;;0.6;;
23252;SDS011;11795;47.054;15.408;2023-04-25T16:24:00;1.0;;;0.5;;
23252;SDS011;11795;47.054;15.408;2023-04-25T16:26:00;1.0;;;0.5;;
23252;SDS011;11795;47.054;15.408;2023-04-25T16:28:00;0.7;;;0.5;;
23252;SDS011;11795;47.054;15.408;2023-04-25T16:30:00;0.7;;;0.5;;
23252;SDS011;11795;47.054;15.408;2023-04-25T16:32:00;0.7;;;0.5;;
23252;SDS011;11795;47.054;15.408;2023-04-25T16:34:01;0.8;;;0.5;;
23252;SDS011;11795;47.054;15.408;2023-04-25T16:36:01;0.8;;;0.5;;
23252;SDS011;11795;47.054;15.408;2023-04-25T16:38:01;0.8;;;0.3;;
23252;SDS011;11795;47.054;15.408;2023-04-25T16:40:00;0.8;;;0.3;;
23252;SDS011;11795;47.054;15.408;2023-04-25T16:42:00;0.8;;;0.3;;
23252;SDS011;11795;47.054;15.408;2023-04-25T16:44:00;1.5;;;0.6;;
23252;SDS011;11795;47.054;15.408;2023-04-25T16:46:00;1.5;;;0.6;;
23252;SDS011;11795;47.054;15.408;2023-04-25T16:48:00;1.7;;;0.4;;
23252;SDS011;11795;47.054;15.408;2023-04-25T16:50:00;1.7;;;0.4;;
23252;SDS011;11795;47.054;15.408;2023-04-25T16:52:00;1.7;;;0.4;;
23252;SDS011;11795;47.054;15.408;2023-04-25T16:54:00;1.2;;;0.5;;
23252;SDS011;11795;47.054;15.408;2023-04-25T16:56:00;1.2;;;0.5;;
23252;SDS011;11795;47.054;15.408;2023-04-25T16:58:01;0.4;;;0.3;;
23252;SDS011;11795;47.054;15.408;2023-04-25T17:00:00;0.4;;;0.3;;
23252;SDS011;11795;47.054;15.408;2023-04-25T17:02:01;0.4;;;0.3;;
23252;SDS011;11795;47.054;15.408;2023-04-25T17:04:00;1.4;;;0.4;;
23252;SDS011;11795;47.054;15.408;2023-04-25T17:06:01;1.4;;;0.4;;
23252;SDS011;11795;47.054;15.408;2023-04-25T17:08:01;0.5;;;0.3;;
23252;SDS011;11795;47.054;15.408;2023-04-25T17:10:01;0.5;;;0.3;;
23252;SDS011;11795;47.054;15.408;2023-04-25T17:12:02;0.5;;;0.3;;
23252;SDS011;11795;47.054;15.408;2023-04-25T17:14:00;1.4;;;0.7;;
23252;SDS011;11795;47.054;15.408;2023-04-25T17:16:01;1.4;;;0.7;;